sensor_id;sensor_type;location;lat;lon;timestamp;pressure;altitude;pressure_sealevel;temperature;humidity
54666;BME280;40566;50.006;36.180;2023-11-21T00:03:51;99041.94;;;-2.45;74.96
54666;BME280;40566;50.006;36.180;2023-11-21T00:08:56;99052.78;;;-2.54;75.10
54666;BME280;40566;50.006;36.180;2023-11-21T00:13:56;99064.72;;;-2.45;74.82
54666;BME280;40566;50.006;36.180;2023-11-21T00:18:57;99059.66;;;-2.47;74.90
54666;BME280;40566;50.006;36.180;2023-11-21T00:23:58;99059.69;;;-2.42;74.57
54666;BME280;40566;50.006;36.180;2023-11-21T00:28:58;99056.34;;;-2.43;74.53
54666;BME280;40566;50.006;36.180;2023-11-21T00:33:59;99047.00;;;-2.45;74.73
54666;BME280;40566;50.006;36.180;2023-11-21T00:39:00;99052.75;;;-2.55;74.70
54666;BME280;40566;50.006;36.180;2023-11-21T00:44:01;99057.72;;;-2.63;74.92
54666;BME280;40566;50.006;36.180;2023-11-21T00:49:01;99053.41;;;-2.72;74.80
54666;BME280;40566;50.006;36.180;2023-11-21T00:54:04;99060.00;;;-2.82;75.06
54666;BME280;40566;50.006;36.180;2023-11-21T00:59:05;99063.38;;;-2.81;75.01
54666;BME280;40566;50.006;36.180;2023-11-21T01:04:05;99063.47;;;-2.75;74.45
54666;BME280;40566;50.006;36.180;2023-11-21T01:09:07;99083.69;;;-2.78;74.53
54666;BME280;40566;50.006;36.180;2023-11-21T01:14:08;99081.25;;;-2.70;74.36
54666;BME280;40566;50.006;36.180;2023-11-21T01:19:10;99098.00;;;-2.79;74.41
54666;BME280;40566;50.006;36.180;2023-11-21T01:24:11;99098.00;;;-2.80;74.57
54666;BME280;40566;50.006;36.180;2023-11-21T01:29:12;99108.25;;;-2.69;74.49
54666;BME280;40566;50.006;36.180;2023-11-21T01:34:13;99113.38;;;-2.65;74.66
54666;BME280;40566;50.006;36.180;2023-11-21T01:39:15;99122.16;;;-2.43;74.13
54666;BME280;40566;50.006;36.180;2023-11-21T01:44:16;99122.16;;;-2.41;73.85
54666;BME280;40566;50.006;36.180;2023-11-21T01:49:17;99118.78;;;-2.42;73.91
54666;BME280;40566;50.006;36.180;2023-11-21T01:54:18;99127.22;;;-2.43;73.93
54666;BME280;40566;50.006;36.180;2023-11-21T01:59:21;99137.38;;;-2.40;74.18
54666;BME280;40566;50.006;36.180;2023-11-21T02:04:22;99148.34;;;-2.39;74.13
54666;BME280;40566;50.006;36.180;2023-11-21T02:09:26;99136.63;;;-2.34;73.90
54666;BME280;40566;50.006;36.180;2023-11-21T02:14:27;99140.84;;;-2.34;73.65
54666;BME280;40566;50.006;36.180;2023-11-21T02:19:28;99143.28;;;-2.39;73.86
54666;BME280;40566;50.006;36.180;2023-11-21T02:24:30;99152.47;;;-2.49;74.12
54666;BME280;40566;50.006;36.180;2023-11-21T02:29:31;99159.16;;;-2.52;74.06
54666;BME280;40566;50.006;36.180;2023-11-21T02:34:31;99158.28;;;-2.53;73.90
54666;BME280;40566;50.006;36.180;2023-11-21T02:39:32;99167.75;;;-2.43;73.99
54666;BME280;40566;50.006;36.180;2023-11-21T02:44:33;99166.09;;;-2.41;74.07
54666;BME280;40566;50.006;36.180;2023-11-21T02:49:33;99175.25;;;-2.47;73.85
54666;BME280;40566;50.006;36.180;2023-11-21T02:54:35;99177.72;;;-2.52;73.88
54666;BME280;40566;50.006;36.180;2023-11-21T02:59:36;99165.78;;;-2.59;73.98
54666;BME280;40566;50.006;36.180;2023-11-21T03:04:37;99168.22;;;-2.65;74.30
54666;BME280;40566;50.006;36.180;2023-11-21T03:09:37;99170.75;;;-2.65;74.39
54666;BME280;40566;50.006;36.180;2023-11-21T03:14:39;99173.50;;;-2.51;74.00
54666;BME280;40566;50.006;36.180;2023-11-21T03:19:41;99179.38;;;-2.54;73.89
54666;BME280;40566;50.006;36.180;2023-11-21T03:24:42;99183.50;;;-2.61;73.92
54666;BME280;40566;50.006;36.180;2023-11-21T03:29:42;99198.63;;;-2.64;74.08
54666;BME280;40566;50.006;36.180;2023-11-21T03:34:55;99192.63;;;-2.69;74.26
54666;BME280;40566;50.006;36.180;2023-11-21T03:39:56;99197.72;;;-2.67;74.11
54666;BME280;40566;50.006;36.180;2023-11-21T03:44:57;99207.88;;;-2.66;74.10
54666;BME280;40566;50.006;36.180;2023-11-21T03:49:58;99194.38;;;-2.66;73.99
54666;BME280;40566;50.006;36.180;2023-11-21T03:54:58;99213.69;;;-2.71;74.02
54666;BME280;40566;50.006;36.180;2023-11-21T03:59:59;99217.69;;;-2.86;74.22
54666;BME280;40566;50.006;36.180;2023-11-21T04:04:59;99220.09;;;-2.90;74.16
54666;BME280;40566;50.006;36.180;2023-11-21T04:10:00;99226.72;;;-3.00;74.34
54666;BME280;40566;50.006;36.180;2023-11-21T04:15:01;99224.13;;;-3.02;74.45
54666;BME280;40566;50.006;36.180;2023-11-21T04:20:06;99250.25;;;-3.03;74.33
54666;BME280;40566;50.006;36.180;2023-11-21T04:25:11;99262.09;;;-3.02;73.96
54666;BME280;40566;50.006;36.180;2023-11-21T04:30:12;99265.38;;;-3.04;74.24
54666;BME280;40566;50.006;36.180;2023-11-21T04:35:13;99261.28;;;-2.99;74.05
54666;BME280;40566;50.006;36.180;2023-11-21T04:40:15;99275.63;;;-3.00;73.83
54666;BME280;40566;50.006;36.180;2023-11-21T04:45:15;99274.69;;;-3.03;74.17
54666;BME280;40566;50.006;36.180;2023-11-21T04:50:17;99278.97;;;-3.01;74.15
54666;BME280;40566;50.006;36.180;2023-11-21T04:55:17;99288.31;;;-2.98;74.03
54666;BME280;40566;50.006;36.180;2023-11-21T05:00:18;99290.69;;;-3.06;74.23
54666;BME280;40566;50.006;36.180;2023-11-21T05:05:18;99296.72;;;-2.99;74.06
54666;BME280;40566;50.006;36.180;2023-11-21T05:10:21;99301.91;;;-2.91;74.08
54666;BME280;40566;50.006;36.180;2023-11-21T05:15:22;99317.19;;;-2.87;74.27
54666;BME280;40566;50.006;36.180;2023-11-21T05:20:23;99325.19;;;-2.65;73.64
54666;BME280;40566;50.006;36.180;2023-11-21T05:25:24;99329.50;;;-2.60;73.63
54666;BME280;40566;50.006;36.180;2023-11-21T05:30:25;99334.63;;;-2.56;73.67
54666;BME280;40566;50.006;36.180;2023-11-21T05:35:25;99352.44;;;-2.52;73.46
54666;BME280;40566;50.006;36.180;2023-11-21T05:40:27;99360.16;;;-2.44;73.53
54666;BME280;40566;50.006;36.180;2023-11-21T05:45:30;99365.41;;;-2.35;73.21
54666;BME280;40566;50.006;36.180;2023-11-21T05:50:30;99367.03;;;-2.37;73.25
54666;BME280;40566;50.006;36.180;2023-11-21T05:55:31;99379.72;;;-2.35;73.17
54666;BME280;40566;50.006;36.180;2023-11-21T06:00:31;99368.69;;;-2.41;73.34
54666;BME280;40566;50.006;36.180;2023-11-21T06:05:33;99381.50;;;-2.31;73.11
54666;BME280;40566;50.006;36.180;2023-11-21T06:10:33;99389.16;;;-2.28;73.32
54666;BME280;40566;50.006;36.180;2023-11-21T06:15:34;99380.97;;;-2.15;73.05
54666;BME280;40566;50.006;36.180;2023-11-21T06:20:35;99383.56;;;-2.10;72.91
54666;BME280;40566;50.006;36.180;2023-11-21T06:25:37;99380.31;;;-2.03;72.72
54666;BME280;40566;50.006;36.180;2023-11-21T06:30:38;99388.78;;;-2.01;72.64
54666;BME280;40566;50.006;36.180;2023-11-21T06:35:38;99388.94;;;-1.92;72.35
54666;BME280;40566;50.006;36.180;2023-11-21T06:40:40;99388.22;;;-1.85;72.06
54666;BME280;40566;50.006;36.180;2023-11-21T06:45:41;99398.63;;;-1.68;71.96
54666;BME280;40566;50.006;36.180;2023-11-21T06:50:41;99398.81;;;-1.55;72.05
54666;BME280;40566;50.006;36.180;2023-11-21T06:55:42;99404.91;;;-1.44;71.90
54666;BME280;40566;50.006;36.180;2023-11-21T07:00:42;99410.94;;;-1.36;71.70
54666;BME280;40566;50.006;36.180;2023-11-21T07:05:46;99409.47;;;-1.22;71.53
54666;BME280;40566;50.006;36.180;2023-11-21T07:10:47;99411.03;;;-1.30;71.52
54666;BME280;40566;50.006;36.180;2023-11-21T07:15:49;99412.88;;;-1.20;71.54
54666;BME280;40566;50.006;36.180;2023-11-21T07:20:49;99414.09;;;-0.91;71.06
54666;BME280;40566;50.006;36.180;2023-11-21T07:25:50;99409.31;;;-0.68;70.59
54666;BME280;40566;50.006;36.180;2023-11-21T07:30:51;99400.13;;;-0.55;70.36
54666;BME280;40566;50.006;36.180;2023-11-21T07:35:51;99399.53;;;-0.34;70.16
54666;BME280;40566;50.006;36.180;2023-11-21T07:40:52;99400.25;;;-0.45;70.10
54666;BME280;40566;50.006;36.180;2023-11-21T07:45:52;99409.72;;;-0.30;70.29
54666;BME280;40566;50.006;36.180;2023-11-21T07:50:53;99419.09;;;-0.27;70.32
54666;BME280;40566;50.006;36.180;2023-11-21T07:55:54;99419.97;;;-0.22;70.07
54666;BME280;40566;50.006;36.180;2023-11-21T08:00:54;99412.41;;;-0.16;70.25
54666;BME280;40566;50.006;36.180;2023-11-21T08:05:55;99422.91;;;0.16;69.31
54666;BME280;40566;50.006;36.180;2023-11-21T08:10:56;99419.72;;;0.45;69.03
54666;BME280;40566;50.006;36.180;2023-11-21T08:15:58;99422.41;;;0.61;69.09
54666;BME280;40566;50.006;36.180;2023-11-21T08:21:02;99413.16;;;0.73;68.88
54666;BME280;40566;50.006;36.180;2023-11-21T08:26:04;99418.09;;;0.52;68.98
54666;BME280;40566;50.006;36.180;2023-11-21T08:31:05;99403.47;;;0.25;69.42
54666;BME280;40566;50.006;36.180;2023-11-21T08:36:09;99408.28;;;1.16;67.24
54666;BME280;40566;50.006;36.180;2023-11-21T08:41:12;99400.59;;;1.04;67.35
54666;BME280;40566;50.006;36.180;2023-11-21T08:46:14;99390.34;;;0.87;67.90
54666;BME280;40566;50.006;36.180;2023-11-21T08:51:15;99395.31;;;0.67;68.59
54666;BME280;40566;50.006;36.180;2023-11-21T08:56:16;99400.13;;;0.30;69.51
54666;BME280;40566;50.006;36.180;2023-11-21T09:01:16;99400.09;;;0.24;69.54
54666;BME280;40566;50.006;36.180;2023-11-21T09:06:17;99398.22;;;0.05;68.97
54666;BME280;40566;50.006;36.180;2023-11-21T09:11:18;99400.53;;;-0.18;69.36
54666;BME280;40566;50.006;36.180;2023-11-21T09:16:19;99399.47;;;-0.41;69.70
54666;BME280;40566;50.006;36.180;2023-11-21T09:21:19;99402.06;;;-0.34;69.35
54666;BME280;40566;50.006;36.180;2023-11-21T09:26:20;99398.34;;;0.20;67.32
54666;BME280;40566;50.006;36.180;2023-11-21T09:31:20;99401.25;;;0.68;67.07
54666;BME280;40566;50.006;36.180;2023-11-21T09:36:23;99378.69;;;9.17;47.49
54666;BME280;40566;50.006;36.180;2023-11-21T09:41:37;99373.84;;;11.68;44.16
54666;BME280;40566;50.006;36.180;2023-11-21T09:46:41;99372.97;;;11.69;44.81
54666;BME280;40566;50.006;36.180;2023-11-21T09:51:43;99400.44;;;14.16;38.47
54666;BME280;40566;50.006;36.180;2023-11-21T09:56:44;99388.13;;;15.40;35.57
54666;BME280;40566;50.006;36.180;2023-11-21T10:01:44;99376.09;;;16.92;32.87
54666;BME280;40566;50.006;36.180;2023-11-21T10:06:47;99399.91;;;16.11;33.31
54666;BME280;40566;50.006;36.180;2023-11-21T10:11:49;99387.25;;;17.10;31.43
54666;BME280;40566;50.006;36.180;2023-11-21T10:16:50;99413.38;;;16.35;31.45
54666;BME280;40566;50.006;36.180;2023-11-21T10:21:52;99402.88;;;16.96;31.22
54666;BME280;40566;50.006;36.180;2023-11-21T10:26:53;99422.72;;;17.14;30.34
54666;BME280;40566;50.006;36.180;2023-11-21T10:31:54;99426.78;;;11.84;37.48
54666;BME280;40566;50.006;36.180;2023-11-21T10:36:58;99422.56;;;7.31;44.81
54666;BME280;40566;50.006;36.180;2023-11-21T10:41:59;99442.81;;;5.23;47.32
54666;BME280;40566;50.006;36.180;2023-11-21T10:47:00;99428.78;;;3.47;51.69
54666;BME280;40566;50.006;36.180;2023-11-21T10:52:01;99448.56;;;2.37;53.67
54666;BME280;40566;50.006;36.180;2023-11-21T10:57:02;99446.72;;;1.58;55.14
54666;BME280;40566;50.006;36.180;2023-11-21T11:02:31;99451.59;;;1.15;55.78
54666;BME280;40566;50.006;36.180;2023-11-21T11:07:33;99467.53;;;0.85;55.79
54666;BME280;40566;50.006;36.180;2023-11-21T11:12:35;99468.13;;;0.53;56.25
54666;BME280;40566;50.006;36.180;2023-11-21T11:17:37;99477.31;;;0.35;56.32
54666;BME280;40566;50.006;36.180;2023-11-21T11:28:11;99476.81;;;-0.17;56.89
54666;BME280;40566;50.006;36.180;2023-11-21T11:33:26;99488.53;;;-0.28;57.16
54666;BME280;40566;50.006;36.180;2023-11-21T11:38:34;99479.91;;;-0.41;57.03
54666;BME280;40566;50.006;36.180;2023-11-21T11:43:35;99483.09;;;-0.57;57.29
54666;BME280;40566;50.006;36.180;2023-11-21T11:48:45;99490.59;;;-0.67;57.33
54666;BME280;40566;50.006;36.180;2023-11-21T11:53:47;99495.66;;;-0.68;57.66
54666;BME280;40566;50.006;36.180;2023-11-21T11:58:48;99499.78;;;-0.76;57.95
54666;BME280;40566;50.006;36.180;2023-11-21T12:09:21;99513.81;;;-1.00;58.27
54666;BME280;40566;50.006;36.180;2023-11-21T12:14:26;99518.72;;;-1.12;58.27
54666;BME280;40566;50.006;36.180;2023-11-21T12:19:28;99533.94;;;-1.12;58.27
54666;BME280;40566;50.006;36.180;2023-11-21T12:24:29;99544.88;;;-1.16;58.57
54666;BME280;40566;50.006;36.180;2023-11-21T12:29:29;99545.41;;;-1.36;58.96
54666;BME280;40566;50.006;36.180;2023-11-21T12:34:31;99551.13;;;-1.46;59.07
54666;BME280;40566;50.006;36.180;2023-11-21T12:39:32;99559.38;;;-1.60;59.37
54666;BME280;40566;50.006;36.180;2023-11-21T12:44:32;99564.25;;;-1.69;59.29
54666;BME280;40566;50.006;36.180;2023-11-21T12:49:34;99573.44;;;-1.75;59.57
54666;BME280;40566;50.006;36.180;2023-11-21T12:54:35;99572.56;;;-1.76;59.66
54666;BME280;40566;50.006;36.180;2023-11-21T12:59:38;99568.31;;;-1.78;59.64
54666;BME280;40566;50.006;36.180;2023-11-21T13:04:39;99570.75;;;-1.83;59.78
54666;BME280;40566;50.006;36.180;2023-11-21T13:09:40;99571.50;;;-1.89;59.95
54666;BME280;40566;50.006;36.180;2023-11-21T13:14:41;99580.72;;;-1.92;60.07
54666;BME280;40566;50.006;36.180;2023-11-21T13:19:41;99590.59;;;-2.05;60.27
54666;BME280;40566;50.006;36.180;2023-11-21T13:37:13;99615.41;;;-2.31;60.71
54666;BME280;40566;50.006;36.180;2023-11-21T13:42:14;99625.19;;;-2.46;61.00
54666;BME280;40566;50.006;36.180;2023-11-21T13:47:16;99618.22;;;-2.56;61.02
54666;BME280;40566;50.006;36.180;2023-11-21T13:58:33;99633.09;;;-2.69;61.19
54666;BME280;40566;50.006;36.180;2023-11-21T14:03:50;99637.13;;;-2.77;61.26
54666;BME280;40566;50.006;36.180;2023-11-21T14:08:57;99637.69;;;-2.89;61.44
54666;BME280;40566;50.006;36.180;2023-11-21T14:13:57;99645.22;;;-2.92;61.50
54666;BME280;40566;50.006;36.180;2023-11-21T14:18:59;99647.66;;;-2.95;61.52
54666;BME280;40566;50.006;36.180;2023-11-21T14:24:10;99650.03;;;-3.01;61.78
54666;BME280;40566;50.006;36.180;2023-11-21T14:29:13;99654.09;;;-3.06;61.69
54666;BME280;40566;50.006;36.180;2023-11-21T14:34:20;99651.41;;;-3.12;61.61
54666;BME280;40566;50.006;36.180;2023-11-21T14:39:21;99652.16;;;-3.16;61.70
54666;BME280;40566;50.006;36.180;2023-11-21T14:44:27;99661.16;;;-3.28;61.78
54666;BME280;40566;50.006;36.180;2023-11-21T14:49:32;99674.63;;;-3.29;62.05
54666;BME280;40566;50.006;36.180;2023-11-21T14:54:48;99673.56;;;-3.37;62.12
54666;BME280;40566;50.006;36.180;2023-11-21T15:00:04;99678.44;;;-3.43;62.02
54666;BME280;40566;50.006;36.180;2023-11-21T15:05:10;99691.72;;;-3.50;62.28
54666;BME280;40566;50.006;36.180;2023-11-21T15:10:16;99704.31;;;-3.52;62.28
54666;BME280;40566;50.006;36.180;2023-11-21T15:15:17;99704.94;;;-3.61;62.50
54666;BME280;40566;50.006;36.180;2023-11-21T15:20:18;99722.63;;;-3.61;62.50
54666;BME280;40566;50.006;36.180;2023-11-21T15:25:19;99720.72;;;-3.68;62.95
54666;BME280;40566;50.006;36.180;2023-11-21T15:30:19;99726.56;;;-3.70;62.76
54666;BME280;40566;50.006;36.180;2023-11-21T15:35:25;99736.66;;;-3.70;62.53
54666;BME280;40566;50.006;36.180;2023-11-21T15:40:27;99730.44;;;-3.82;62.68
54666;BME280;40566;50.006;36.180;2023-11-21T15:45:28;99748.03;;;-3.85;62.73
54666;BME280;40566;50.006;36.180;2023-11-21T15:50:29;99752.09;;;-3.90;62.72
54666;BME280;40566;50.006;36.180;2023-11-21T15:55:32;99767.00;;;-3.97;62.87
54666;BME280;40566;50.006;36.180;2023-11-21T16:00:34;99771.03;;;-4.04;62.81
54666;BME280;40566;50.006;36.180;2023-11-21T16:05:35;99767.47;;;-4.09;62.80
54666;BME280;40566;50.006;36.180;2023-11-21T16:10:36;99768.72;;;-4.24;63.07
54666;BME280;40566;50.006;36.180;2023-11-21T16:15:36;99770.94;;;-4.33;63.13
54666;BME280;40566;50.006;36.180;2023-11-21T16:20:38;99776.44;;;-4.45;63.20
54666;BME280;40566;50.006;36.180;2023-11-21T16:25:38;99767.25;;;-4.43;62.87
54666;BME280;40566;50.006;36.180;2023-11-21T16:30:40;99765.97;;;-4.57;63.04
54666;BME280;40566;50.006;36.180;2023-11-21T16:35:40;99776.09;;;-4.55;62.99
54666;BME280;40566;50.006;36.180;2023-11-21T16:40:42;99770.03;;;-4.61;63.13
54666;BME280;40566;50.006;36.180;2023-11-21T16:45:47;99768.09;;;-4.69;62.94
54666;BME280;40566;50.006;36.180;2023-11-21T16:50:52;99772.91;;;-4.75;63.04
54666;BME280;40566;50.006;36.180;2023-11-21T16:55:52;99775.44;;;-4.75;62.93
54666;BME280;40566;50.006;36.180;2023-11-21T17:00:53;99788.00;;;-4.77;63.16
54666;BME280;40566;50.006;36.180;2023-11-21T17:05:55;99791.88;;;-4.87;62.99
54666;BME280;40566;50.006;36.180;2023-11-21T17:10:56;99796.69;;;-4.93;63.07
54666;BME280;40566;50.006;36.180;2023-11-21T17:15:56;99800.78;;;-4.96;63.11
54666;BME280;40566;50.006;36.180;2023-11-21T17:20:57;99806.19;;;-5.10;63.52
54666;BME280;40566;50.006;36.180;2023-11-21T17:25:57;99804.34;;;-5.14;63.51
54666;BME280;40566;50.006;36.180;2023-11-21T17:30:58;99795.81;;;-5.18;63.51
54666;BME280;40566;50.006;36.180;2023-11-21T17:35:58;99799.00;;;-5.23;63.74
54666;BME280;40566;50.006;36.180;2023-11-21T17:40:59;99804.06;;;-5.22;63.67
54666;BME280;40566;50.006;36.180;2023-11-21T17:46:00;99801.41;;;-5.26;63.67
54666;BME280;40566;50.006;36.180;2023-11-21T17:51:01;99804.63;;;-5.30;63.90
54666;BME280;40566;50.006;36.180;2023-11-21T17:56:01;99804.25;;;-5.40;63.96
54666;BME280;40566;50.006;36.180;2023-11-21T18:01:02;99811.09;;;-5.37;63.79
54666;BME280;40566;50.006;36.180;2023-11-21T18:06:03;99804.88;;;-5.45;63.75
54666;BME280;40566;50.006;36.180;2023-11-21T18:11:04;99816.81;;;-5.41;63.74
54666;BME280;40566;50.006;36.180;2023-11-21T18:16:05;99824.34;;;-5.43;63.80
54666;BME280;40566;50.006;36.180;2023-11-21T18:21:06;99824.19;;;-5.46;63.54
54666;BME280;40566;50.006;36.180;2023-11-21T18:26:07;99834.81;;;-5.54;63.80
54666;BME280;40566;50.006;36.180;2023-11-21T18:31:08;99845.13;;;-5.48;63.85
54666;BME280;40566;50.006;36.180;2023-11-21T18:36:08;99851.84;;;-5.47;63.68
54666;BME280;40566;50.006;36.180;2023-11-21T18:41:09;99845.81;;;-5.52;63.84
54666;BME280;40566;50.006;36.180;2023-11-21T18:46:09;99845.66;;;-5.55;63.72
54666;BME280;40566;50.006;36.180;2023-11-21T18:51:10;99847.81;;;-5.65;63.90
54666;BME280;40566;50.006;36.180;2023-11-21T18:56:21;99856.25;;;-5.64;63.77
54666;BME280;40566;50.006;36.180;2023-11-21T19:01:25;99848.41;;;-5.72;64.02
54666;BME280;40566;50.006;36.180;2023-11-21T19:06:26;99865.66;;;-5.81;64.45
54666;BME280;40566;50.006;36.180;2023-11-21T19:11:27;99860.78;;;-5.78;64.11
54666;BME280;40566;50.006;36.180;2023-11-21T19:16:27;99854.69;;;-5.83;64.31
54666;BME280;40566;50.006;36.180;2023-11-21T19:21:29;99846.03;;;-5.90;64.42
54666;BME280;40566;50.006;36.180;2023-11-21T19:26:30;99840.25;;;-5.87;64.42
54666;BME280;40566;50.006;36.180;2023-11-21T19:31:31;99835.22;;;-5.87;64.13
54666;BME280;40566;50.006;36.180;2023-11-21T19:36:31;99839.88;;;-5.98;64.13
54666;BME280;40566;50.006;36.180;2023-11-21T19:41:32;99859.09;;;-6.00;64.39
54666;BME280;40566;50.006;36.180;2023-11-21T19:46:34;99866.88;;;-5.92;63.94
54666;BME280;40566;50.006;36.180;2023-11-21T19:51:35;99880.28;;;-5.93;64.00
54666;BME280;40566;50.006;36.180;2023-11-21T19:56:38;99886.47;;;-6.08;64.20
54666;BME280;40566;50.006;36.180;2023-11-21T20:01:38;99898.81;;;-6.14;64.33
54666;BME280;40566;50.006;36.180;2023-11-21T20:06:41;99892.09;;;-6.13;64.32
54666;BME280;40566;50.006;36.180;2023-11-21T20:11:42;99903.91;;;-6.32;64.30
54666;BME280;40566;50.006;36.180;2023-11-21T20:16:46;99916.91;;;-6.42;64.66
54666;BME280;40566;50.006;36.180;2023-11-21T20:21:49;99911.09;;;-6.41;64.37
54666;BME280;40566;50.006;36.180;2023-11-21T20:26:51;99914.97;;;-6.48;64.39
54666;BME280;40566;50.006;36.180;2023-11-21T20:31:53;99926.88;;;-6.44;64.28
54666;BME280;40566;50.006;36.180;2023-11-21T20:36:55;99924.44;;;-6.42;64.46
54666;BME280;40566;50.006;36.180;2023-11-21T20:41:55;99911.09;;;-6.41;64.29
54666;BME280;40566;50.006;36.180;2023-11-21T20:46:56;99915.28;;;-6.42;64.06
54666;BME280;40566;50.006;36.180;2023-11-21T20:51:58;99915.91;;;-6.46;64.20
54666;BME280;40566;50.006;36.180;2023-11-21T20:56:59;99923.19;;;-6.52;64.41
54666;BME280;40566;50.006;36.180;2023-11-21T21:02:00;99932.41;;;-6.52;64.29
54666;BME280;40566;50.006;36.180;2023-11-21T21:07:02;99929.97;;;-6.51;64.31
54666;BME280;40566;50.006;36.180;2023-11-21T21:12:03;99939.50;;;-6.63;64.55
54666;BME280;40566;50.006;36.180;2023-11-21T21:17:04;99949.47;;;-6.65;64.47
54666;BME280;40566;50.006;36.180;2023-11-21T21:22:06;99948.13;;;-6.76;64.61
54666;BME280;40566;50.006;36.180;2023-11-21T21:27:06;99946.69;;;-6.71;64.67
54666;BME280;40566;50.006;36.180;2023-11-21T21:32:07;99953.44;;;-6.70;64.55
54666;BME280;40566;50.006;36.180;2023-11-21T21:37:08;99954.16;;;-6.72;64.57
54666;BME280;40566;50.006;36.180;2023-11-21T21:42:09;99954.81;;;-6.76;64.45
54666;BME280;40566;50.006;36.180;2023-11-21T21:47:10;99953.91;;;-6.79;64.46
54666;BME280;40566;50.006;36.180;2023-11-21T21:52:10;99939.78;;;-6.94;65.05
54666;BME280;40566;50.006;36.180;2023-11-21T21:57:11;99935.44;;;-6.97;65.08
54666;BME280;40566;50.006;36.180;2023-11-21T22:02:12;99952.91;;;-7.00;65.35
54666;BME280;40566;50.006;36.180;2023-11-21T22:07:12;99950.59;;;-6.95;65.33
54666;BME280;40566;50.006;36.180;2023-11-21T22:12:13;99959.97;;;-6.93;65.05
54666;BME280;40566;50.006;36.180;2023-11-21T22:17:13;99953.78;;;-7.00;64.91
54666;BME280;40566;50.006;36.180;2023-11-21T22:22:16;99956.88;;;-7.05;64.96
54666;BME280;40566;50.006;36.180;2023-11-21T22:27:18;99958.69;;;-7.03;65.00
54666;BME280;40566;50.006;36.180;2023-11-21T22:32:18;99956.16;;;-7.03;65.11
54666;BME280;40566;50.006;36.180;2023-11-21T22:37:19;99966.91;;;-7.05;65.22
54666;BME280;40566;50.006;36.180;2023-11-21T22:42:20;99973.69;;;-7.04;65.53
54666;BME280;40566;50.006;36.180;2023-11-21T22:47:20;99988.13;;;-7.00;65.18
54666;BME280;40566;50.006;36.180;2023-11-21T22:52:21;99996.75;;;-6.95;65.29
54666;BME280;40566;50.006;36.180;2023-11-21T22:57:24;100002.47;;;-6.98;65.00
54666;BME280;40566;50.006;36.180;2023-11-21T23:02:25;100003.97;;;-7.01;65.11
54666;BME280;40566;50.006;36.180;2023-11-21T23:07:25;100009.81;;;-7.02;65.25
54666;BME280;40566;50.006;36.180;2023-11-21T23:12:26;100020.59;;;-7.05;65.51
54666;BME280;40566;50.006;36.180;2023-11-21T23:17:27;100027.41;;;-7.02;65.22
54666;BME280;40566;50.006;36.180;2023-11-21T23:22:30;100014.84;;;-7.02;65.36
54666;BME280;40566;50.006;36.180;2023-11-21T23:27:32;100007.50;;;-7.15;65.80
54666;BME280;40566;50.006;36.180;2023-11-21T23:32:33;100002.19;;;-7.22;65.96
54666;BME280;40566;50.006;36.180;2023-11-21T23:37:34;100008.81;;;-7.24;65.99
54666;BME280;40566;50.006;36.180;2023-11-21T23:42:34;99994.00;;;-7.35;66.28
54666;BME280;40566;50.006;36.180;2023-11-21T23:47:35;99974.91;;;-7.32;66.06
54666;BME280;40566;50.006;36.180;2023-11-21T23:52:36;99960.59;;;-7.33;66.09
54666;BME280;40566;50.006;36.180;2023-11-21T23:57:36;99953.34;;;-7.27;65.82
